Peralta, New Mexico
Current Conditions -  °F | °C
As of 8:52 PM on Monday 20 Oct 2014 (Local Time) from KABQ Reporting Station
Light Rain Light Rain  
Wind Chill: 57°   Ceiling: 7500
Heat Index: 57°   Visibility: 7mi
Dew Point: 47°   Wind: 14mph
Humidity: 69%   Direction: 90°E
Pressure: 30.18"   Gusts: NA
Location:  34.84°N, 106.69°W
Report Text: KABQ 210252Z 09012KT 7SM -RA FEW045 BKN075 OVC120 14/08 A3018 RMK AO2 SLP174 MTNS OBSC NE-SE P0001 60002 T01390083 53008
Loading
Personal Weather Stations






























Interactive Weather Map
Tropical Storm Tracking
New forecast layout! Learn more

10-Day Weather Forecast

Advertisements
Track Severe Weather on mobile